Time;durP1;ratioP1;P1;durP2;ratioP2;P2;SDS_P1;SDS_P2;PMS_P1;PMS_P2;Temp;Humidity;BMP_temperature;BMP_pressure;BME280_temperature;BME280_humidity;BME280_pressure;Samples;Min_cycle;Max_cycle;Signal;HPM_P1;HPM_P2
2022/04/18 00:00:00;;;;;;;12.7;11.4;;;;;;;10.7;88.4;101760;;;;
2022/04/18 00:01:00;;;;;;;12.7;11.4;;;;;;;10.7;84.7;101750;;;;
2022/04/18 00:02:00;;;;;;;12.7;11.4;;;;;;;10.7;84.7;101750;;;;
2022/04/18 00:03:03;;;;;;;12.7;11.4;;;;;;;10.7;86.4;101760;;;;
2022/04/18 00:04:00;;;;;;;12.7;11.4;;;;;;;10.7;86.4;101760;;;;
2022/04/18 00:05:00;;;;;;;12.7;11.4;;;;;;;10.6;88.4;101760;;;;
2022/04/18 00:06:00;;;;;;;12.7;11.4;;;;;;;10.6;88.4;101760;;;;
2022/04/18 00:07:00;;;;;;;12.7;11.4;;;;;;;10.6;86.4;101760;;;;
2022/04/18 00:08:01;;;;;;;12.7;11.4;;;;;;;10.6;86.4;101760;;;;
2022/04/18 00:09:00;;;;;;;12.7;11.4;;;;;;;10.6;86.4;101760;;;;
2022/04/18 00:10:00;;;;;;;12.7;11.4;;;;;;;10.6;86.4;101760;;;;
2022/04/18 00:11:00;;;;;;;12.7;11.4;;;;;;;10.6;87.8;101760;;;;
2022/04/18 00:12:00;;;;;;;12.2;11.0;;;;;;;10.6;87.8;101760;;;;
2022/04/18 00:13:00;;;;;;;12.2;11.0;;;;;;;10.6;86.5;101760;;;;
2022/04/18 00:14:00;;;;;;;12.2;11.0;;;;;;;10.6;86.5;101760;;;;
2022/04/18 00:15:00;;;;;;;12.2;11.0;;;;;;;10.4;82.4;101760;;;;
2022/04/18 00:16:00;;;;;;;12.2;11.0;;;;;;;10.4;82.4;101760;;;;
2022/04/18 00:17:00;;;;;;;12.2;11.0;;;;;;;10.4;85.8;101750;;;;
2022/04/18 00:18:00;;;;;;;12.2;11.0;;;;;;;10.4;85.8;101750;;;;
2022/04/18 00:19:00;;;;;;;12.2;11.0;;;;;;;10.4;87.8;101750;;;;
2022/04/18 00:20:00;;;;;;;12.2;11.0;;;;;;;10.4;87.8;101750;;;;
2022/04/18 00:21:00;;;;;;;12.2;11.0;;;;;;;10.3;88.9;101750;;;;
2022/04/18 00:22:00;;;;;;;12.2;11.0;;;;;;;10.3;88.9;101750;;;;
2022/04/18 00:23:00;;;;;;;12.2;11.0;;;;;;;10.3;87.5;101750;;;;
2022/04/18 00:24:00;;;;;;;12.2;11.0;;;;;;;10.3;87.5;101750;;;;
2022/04/18 00:25:00;;;;;;;12.2;11.0;;;;;;;10.2;88.2;101740;;;;
2022/04/18 00:26:00;;;;;;;12.2;11.0;;;;;;;10.2;88.2;101740;;;;
2022/04/18 00:27:01;;;;;;;12.2;11.0;;;;;;;10.2;88.2;101740;;;;
2022/04/18 00:28:00;;;;;;;12.2;11.0;;;;;;;10.2;88.2;101740;;;;
2022/04/18 00:29:00;;;;;;;12.2;11.0;;;;;;;10.2;86.4;101750;;;;
2022/04/18 00:30:00;;;;;;;12.2;11.0;;;;;;;10.2;86.4;101750;;;;
2022/04/18 00:31:00;;;;;;;12.2;11.0;;;;;;;10.2;86.6;101740;;;;
2022/04/18 00:32:00;;;;;;;10.9;9.8;;;;;;;10.2;86.6;101740;;;;
2022/04/18 00:33:00;;;;;;;10.9;9.8;;;;;;;10.2;88.7;101740;;;;
2022/04/18 00:34:00;;;;;;;10.9;9.8;;;;;;;10.2;88.7;101740;;;;
2022/04/18 00:35:02;;;;;;;10.9;9.8;;;;;;;10.2;86.4;101740;;;;
2022/04/18 00:36:00;;;;;;;10.9;9.8;;;;;;;10.2;86.4;101740;;;;
2022/04/18 00:37:00;;;;;;;10.9;9.8;;;;;;;10.2;88.2;101740;;;;
2022/04/18 00:38:00;;;;;;;10.9;9.8;;;;;;;10.2;88.2;101740;;;;
2022/04/18 00:39:00;;;;;;;10.9;9.8;;;;;;;10.2;90.3;101740;;;;
2022/04/18 00:40:00;;;;;;;10.9;9.8;;;;;;;10.2;90.3;101740;;;;
2022/04/18 00:41:00;;;;;;;10.9;9.8;;;;;;;10.1;85.6;101740;;;;
2022/04/18 00:42:00;;;;;;;10.9;9.8;;;;;;;10.1;85.6;101740;;;;
2022/04/18 00:43:00;;;;;;;10.9;9.8;;;;;;;10.0;87.6;101730;;;;
2022/04/18 00:44:00;;;;;;;10.9;9.8;;;;;;;10.0;87.6;101730;;;;
2022/04/18 00:45:01;;;;;;;10.9;9.8;;;;;;;10.1;86.9;101740;;;;
2022/04/18 00:46:00;;;;;;;10.9;9.8;;;;;;;10.1;86.9;101740;;;;
2022/04/18 00:47:00;;;;;;;10.9;9.8;;;;;;;9.9;85.9;101730;;;;
2022/04/18 00:48:00;;;;;;;10.9;9.8;;;;;;;9.9;85.9;101730;;;;
2022/04/18 00:49:00;;;;;;;10.9;9.8;;;;;;;10.0;92.3;101730;;;;
2022/04/18 00:50:01;;;;;;;10.9;9.8;;;;;;;10.0;92.3;101730;;;;
2022/04/18 00:51:00;;;;;;;10.9;9.8;;;;;;;9.9;86.9;101730;;;;
2022/04/18 00:52:01;;;;;;;8.6;7.8;;;;;;;9.9;86.9;101730;;;;
2022/04/18 00:53:00;;;;;;;8.6;7.8;;;;;;;10.0;89.4;101730;;;;
2022/04/18 00:54:00;;;;;;;8.6;7.8;;;;;;;10.0;89.4;101730;;;;
2022/04/18 00:55:00;;;;;;;8.6;7.8;;;;;;;10.0;85.4;101740;;;;
2022/04/18 00:56:00;;;;;;;8.6;7.8;;;;;;;10.0;85.4;101740;;;;
2022/04/18 00:57:00;;;;;;;8.6;7.8;;;;;;;10.0;87.9;101730;;;;
2022/04/18 00:58:00;;;;;;;8.6;7.8;;;;;;;10.0;87.9;101730;;;;
2022/04/18 00:59:00;;;;;;;8.6;7.8;;;;;;;9.9;89.9;101730;;;;
2022/04/18 01:00:00;;;;;;;8.6;7.8;;;;;;;9.9;89.9;101730;;;;
2022/04/18 01:01:00;;;;;;;8.6;7.8;;;;;;;9.8;88.1;101730;;;;
2022/04/18 01:02:00;;;;;;;8.6;7.8;;;;;;;9.8;88.1;101730;;;;
2022/04/18 01:03:00;;;;;;;8.6;7.8;;;;;;;9.9;88.2;101730;;;;
2022/04/18 01:04:00;;;;;;;8.6;7.8;;;;;;;9.9;88.2;101730;;;;
2022/04/18 01:05:00;;;;;;;8.6;7.8;;;;;;;9.9;88.7;101730;;;;
2022/04/18 01:06:00;;;;;;;8.6;7.8;;;;;;;9.9;88.7;101730;;;;
2022/04/18 01:07:02;;;;;;;8.6;7.8;;;;;;;9.9;89.2;101730;;;;
2022/04/18 01:08:00;;;;;;;8.6;7.8;;;;;;;9.9;89.2;101730;;;;
2022/04/18 01:09:00;;;;;;;8.6;7.8;;;;;;;9.9;91.2;101730;;;;
2022/04/18 01:10:01;;;;;;;8.6;7.8;;;;;;;9.9;91.2;101730;;;;
2022/04/18 01:11:00;;;;;;;8.6;7.8;;;;;;;9.8;90.1;101730;;;;
2022/04/18 01:12:00;;;;;;;8.8;7.5;;;;;;;9.8;90.1;101730;;;;
2022/04/18 01:13:00;;;;;;;8.8;7.5;;;;;;;9.8;89.3;101730;;;;
2022/04/18 01:14:02;;;;;;;8.8;7.5;;;;;;;9.8;89.3;101730;;;;
2022/04/18 01:15:00;;;;;;;8.8;7.5;;;;;;;9.8;90.3;101730;;;;
2022/04/18 01:16:00;;;;;;;8.8;7.5;;;;;;;9.8;90.3;101730;;;;
2022/04/18 01:17:00;;;;;;;8.8;7.5;;;;;;;9.7;90.4;101720;;;;
2022/04/18 01:18:00;;;;;;;8.8;7.5;;;;;;;9.7;90.4;101720;;;;
2022/04/18 01:19:00;;;;;;;8.8;7.5;;;;;;;9.7;91.6;101730;;;;
2022/04/18 01:20:00;;;;;;;8.8;7.5;;;;;;;9.7;91.6;101730;;;;
2022/04/18 01:21:00;;;;;;;8.8;7.5;;;;;;;9.7;90.0;101730;;;;
2022/04/18 01:22:00;;;;;;;8.8;7.5;;;;;;;9.7;90.0;101730;;;;
2022/04/18 01:23:00;;;;;;;8.8;7.5;;;;;;;9.7;91.9;101730;;;;
2022/04/18 01:24:00;;;;;;;8.8;7.5;;;;;;;9.7;91.9;101730;;;;
2022/04/18 01:29:01;;;;;;;8.8;7.5;;;;;;;9.6;91.1;101730;;;;
2022/04/18 01:30:00;;;;;;;8.8;7.5;;;;;;;9.6;91.1;101730;;;;
2022/04/18 01:31:00;;;;;;;8.8;7.5;;;;;;;9.6;91.7;101730;;;;
2022/04/18 01:32:00;;;;;;;7.0;6.4;;;;;;;9.6;91.7;101730;;;;
2022/04/18 01:33:00;;;;;;;7.0;6.4;;;;;;;9.5;92.4;101720;;;;
2022/04/18 01:34:00;;;;;;;7.0;6.4;;;;;;;9.5;92.4;101720;;;;
2022/04/18 01:35:00;;;;;;;7.0;6.4;;;;;;;9.5;95.7;101720;;;;
2022/04/18 01:36:00;;;;;;;7.0;6.4;;;;;;;9.5;95.7;101720;;;;
2022/04/18 01:37:00;;;;;;;7.0;6.4;;;;;;;9.5;93.7;101720;;;;
2022/04/18 01:38:00;;;;;;;7.0;6.4;;;;;;;9.5;93.7;101720;;;;
2022/04/18 01:39:00;;;;;;;7.0;6.4;;;;;;;9.5;93.1;101720;;;;
2022/04/18 01:40:00;;;;;;;7.0;6.4;;;;;;;9.5;93.1;101720;;;;
2022/04/18 01:41:00;;;;;;;7.0;6.4;;;;;;;9.5;91.9;101720;;;;
2022/04/18 01:42:00;;;;;;;7.0;6.4;;;;;;;9.5;91.9;101720;;;;
2022/04/18 01:43:00;;;;;;;7.0;6.4;;;;;;;9.5;94.2;101720;;;;
2022/04/18 01:44:00;;;;;;;7.0;6.4;;;;;;;9.5;94.2;101720;;;;
2022/04/18 01:45:00;;;;;;;7.0;6.4;;;;;;;9.5;93.1;101720;;;;
2022/04/18 01:46:00;;;;;;;7.0;6.4;;;;;;;9.5;93.1;101720;;;;
2022/04/18 01:47:00;;;;;;;7.0;6.4;;;;;;;9.4;95.2;101720;;;;
2022/04/18 01:48:00;;;;;;;7.0;6.4;;;;;;;9.4;95.2;101720;;;;
2022/04/18 01:49:00;;;;;;;7.0;6.4;;;;;;;9.3;93.8;101720;;;;
2022/04/18 01:50:00;;;;;;;7.0;6.4;;;;;;;9.3;93.8;101720;;;;
2022/04/18 01:51:00;;;;;;;7.0;6.4;;;;;;;9.2;92.6;101720;;;;
2022/04/18 01:52:00;;;;;;;6.5;5.8;;;;;;;9.2;92.6;101720;;;;
2022/04/18 01:53:00;;;;;;;6.5;5.8;;;;;;;9.2;94.3;101710;;;;
2022/04/18 01:54:00;;;;;;;6.5;5.8;;;;;;;9.2;94.3;101710;;;;
2022/04/18 01:55:00;;;;;;;6.5;5.8;;;;;;;9.1;94.2;101710;;;;
2022/04/18 01:56:00;;;;;;;6.5;5.8;;;;;;;9.1;94.2;101710;;;;
2022/04/18 01:57:00;;;;;;;6.5;5.8;;;;;;;9.2;92.9;101710;;;;
2022/04/18 01:58:00;;;;;;;6.5;5.8;;;;;;;9.2;92.9;101710;;;;
2022/04/18 01:59:00;;;;;;;6.5;5.8;;;;;;;9.2;93.8;101710;;;;
2022/04/18 02:00:00;;;;;;;6.5;5.8;;;;;;;9.2;93.8;101710;;;;
2022/04/18 02:01:00;;;;;;;6.5;5.8;;;;;;;9.3;95.8;101710;;;;
2022/04/18 02:02:00;;;;;;;6.5;5.8;;;;;;;9.3;95.8;101710;;;;
2022/04/18 02:03:00;;;;;;;6.5;5.8;;;;;;;9.3;94.7;101710;;;;
2022/04/18 02:04:00;;;;;;;6.5;5.8;;;;;;;9.3;94.7;101710;;;;
2022/04/18 02:05:00;;;;;;;6.5;5.8;;;;;;;9.2;91.4;101710;;;;
2022/04/18 02:06:00;;;;;;;6.5;5.8;;;;;;;9.2;91.4;101710;;;;
2022/04/18 02:07:00;;;;;;;6.5;5.8;;;;;;;9.2;97.3;101710;;;;
2022/04/18 02:08:00;;;;;;;6.5;5.8;;;;;;;9.2;97.3;101710;;;;
2022/04/18 02:09:00;;;;;;;6.5;5.8;;;;;;;9.2;98.3;101710;;;;
2022/04/18 02:10:00;;;;;;;6.5;5.8;;;;;;;9.2;98.3;101710;;;;
2022/04/18 02:11:00;;;;;;;6.5;5.8;;;;;;;9.2;95.8;101710;;;;
2022/04/18 02:12:00;;;;;;;6.4;5.9;;;;;;;9.2;95.8;101710;;;;
2022/04/18 02:13:00;;;;;;;6.4;5.9;;;;;;;9.2;98.0;101700;;;;
2022/04/18 02:14:00;;;;;;;6.4;5.9;;;;;;;9.2;98.0;101700;;;;
2022/04/18 02:15:00;;;;;;;6.4;5.9;;;;;;;9.1;96.8;101700;;;;
2022/04/18 02:16:00;;;;;;;6.4;5.9;;;;;;;9.1;96.8;101700;;;;
2022/04/18 02:17:00;;;;;;;6.4;5.9;;;;;;;9.0;94.8;101700;;;;
2022/04/18 02:18:00;;;;;;;6.4;5.9;;;;;;;9.0;94.8;101700;;;;
2022/04/18 02:19:00;;;;;;;6.4;5.9;;;;;;;9.0;95.5;101700;;;;
2022/04/18 02:20:00;;;;;;;6.4;5.9;;;;;;;9.0;95.5;101700;;;;
2022/04/18 02:21:00;;;;;;;6.4;5.9;;;;;;;9.0;96.9;101700;;;;
2022/04/18 02:22:00;;;;;;;6.4;5.9;;;;;;;9.0;96.9;101700;;;;
2022/04/18 02:23:00;;;;;;;6.4;5.9;;;;;;;9.0;97.7;101700;;;;
2022/04/18 02:24:00;;;;;;;6.4;5.9;;;;;;;9.0;97.7;101700;;;;
2022/04/18 02:25:00;;;;;;;6.4;5.9;;;;;;;8.9;98.6;101700;;;;
2022/04/18 02:26:00;;;;;;;6.4;5.9;;;;;;;8.9;98.6;101700;;;;
2022/04/18 02:27:00;;;;;;;6.4;5.9;;;;;;;8.9;97.1;101700;;;;
2022/04/18 02:28:00;;;;;;;6.4;5.9;;;;;;;8.9;97.1;101700;;;;
2022/04/18 02:29:00;;;;;;;6.4;5.9;;;;;;;8.9;98.8;101700;;;;
2022/04/18 02:30:00;;;;;;;6.4;5.9;;;;;;;8.9;98.8;101700;;;;
2022/04/18 02:31:00;;;;;;;6.4;5.9;;;;;;;8.8;100.0;101700;;;;
2022/04/18 02:33:00;;;;;;;5.9;5.4;;;;;;;8.8;97.7;101700;;;;
2022/04/18 02:34:00;;;;;;;5.9;5.4;;;;;;;8.8;97.7;101700;;;;
2022/04/18 02:35:00;;;;;;;5.9;5.4;;;;;;;8.8;98.2;101690;;;;
2022/04/18 02:36:01;;;;;;;5.9;5.4;;;;;;;8.8;98.2;101690;;;;
2022/04/18 02:37:00;;;;;;;5.9;5.4;;;;;;;8.8;96.9;101700;;;;
2022/04/18 02:38:00;;;;;;;5.9;5.4;;;;;;;8.8;96.9;101700;;;;
2022/04/18 02:39:00;;;;;;;5.9;5.4;;;;;;;8.7;96.3;101700;;;;
2022/04/18 02:40:00;;;;;;;5.9;5.4;;;;;;;8.7;96.3;101700;;;;
2022/04/18 02:41:00;;;;;;;5.9;5.4;;;;;;;8.7;96.7;101690;;;;
2022/04/18 02:42:00;;;;;;;5.9;5.4;;;;;;;8.7;96.7;101690;;;;
2022/04/18 02:43:00;;;;;;;5.9;5.4;;;;;;;8.7;98.4;101690;;;;
2022/04/18 02:44:00;;;;;;;5.9;5.4;;;;;;;8.7;98.4;101690;;;;
2022/04/18 02:45:00;;;;;;;5.9;5.4;;;;;;;8.6;97.1;101690;;;;
2022/04/18 02:46:00;;;;;;;5.9;5.4;;;;;;;8.6;97.1;101690;;;;
2022/04/18 02:47:00;;;;;;;5.9;5.4;;;;;;;8.6;99.0;101690;;;;
2022/04/18 02:48:00;;;;;;;5.9;5.4;;;;;;;8.6;99.0;101690;;;;
2022/04/18 02:49:00;;;;;;;5.9;5.4;;;;;;;8.5;97.5;101690;;;;
2022/04/18 02:50:00;;;;;;;5.9;5.4;;;;;;;8.5;97.5;101690;;;;
2022/04/18 02:51:00;;;;;;;5.9;5.4;;;;;;;8.5;98.7;101690;;;;
2022/04/18 02:52:00;;;;;;;6.7;5.7;;;;;;;8.5;98.7;101690;;;;
2022/04/18 02:53:00;;;;;;;6.7;5.7;;;;;;;8.6;100.0;101690;;;;
2022/04/18 02:54:00;;;;;;;6.7;5.7;;;;;;;8.6;100.0;101690;;;;
2022/04/18 02:55:00;;;;;;;6.7;5.7;;;;;;;8.5;98.8;101690;;;;
2022/04/18 02:56:00;;;;;;;6.7;5.7;;;;;;;8.5;98.8;101690;;;;
2022/04/18 02:57:00;;;;;;;6.7;5.7;;;;;;;8.5;99.2;101680;;;;
2022/04/18 02:58:00;;;;;;;6.7;5.7;;;;;;;8.5;99.2;101680;;;;
2022/04/18 02:59:00;;;;;;;6.7;5.7;;;;;;;8.4;100.0;101680;;;;
2022/04/18 03:00:00;;;;;;;6.7;5.7;;;;;;;8.4;100.0;101680;;;;
2022/04/18 03:01:00;;;;;;;6.7;5.7;;;;;;;8.4;100.0;101680;;;;
2022/04/18 03:02:01;;;;;;;6.7;5.7;;;;;;;8.4;100.0;101680;;;;
2022/04/18 03:03:00;;;;;;;6.7;5.7;;;;;;;8.4;100.0;101680;;;;
2022/04/18 03:04:00;;;;;;;6.7;5.7;;;;;;;8.4;100.0;101680;;;;
2022/04/18 03:05:00;;;;;;;6.7;5.7;;;;;;;8.3;100.0;101680;;;;
2022/04/18 03:06:00;;;;;;;6.7;5.7;;;;;;;8.3;100.0;101680;;;;
2022/04/18 03:07:01;;;;;;;6.7;5.7;;;;;;;8.3;100.0;101680;;;;
2022/04/18 03:08:00;;;;;;;6.7;5.7;;;;;;;8.3;100.0;101680;;;;
2022/04/18 03:09:00;;;;;;;6.7;5.7;;;;;;;8.2;100.0;101680;;;;
2022/04/18 03:10:00;;;;;;;6.7;5.7;;;;;;;8.2;100.0;101680;;;;
2022/04/18 03:11:03;;;;;;;6.7;5.7;;;;;;;8.2;100.0;101680;;;;
2022/04/18 03:12:02;;;;;;;7.2;6.0;;;;;;;8.2;100.0;101680;;;;
2022/04/18 03:13:00;;;;;;;7.2;6.0;;;;;;;8.2;100.0;101680;;;;
2022/04/18 03:14:00;;;;;;;7.2;6.0;;;;;;;8.2;100.0;101680;;;;
2022/04/18 03:15:00;;;;;;;7.2;6.0;;;;;;;8.1;100.0;101670;;;;
2022/04/18 03:16:00;;;;;;;7.2;6.0;;;;;;;8.1;100.0;101670;;;;
2022/04/18 03:17:00;;;;;;;7.2;6.0;;;;;;;8.0;100.0;101680;;;;
2022/04/18 03:18:00;;;;;;;7.2;6.0;;;;;;;8.0;100.0;101680;;;;
2022/04/18 03:19:00;;;;;;;7.2;6.0;;;;;;;8.1;100.0;101670;;;;
2022/04/18 03:20:00;;;;;;;7.2;6.0;;;;;;;8.1;100.0;101670;;;;
2022/04/18 03:21:00;;;;;;;7.2;6.0;;;;;;;8.1;100.0;101680;;;;
2022/04/18 03:22:00;;;;;;;7.2;6.0;;;;;;;8.1;100.0;101680;;;;
2022/04/18 03:23:00;;;;;;;7.2;6.0;;;;;;;8.0;100.0;101670;;;;
2022/04/18 03:24:00;;;;;;;7.2;6.0;;;;;;;8.0;100.0;101670;;;;
2022/04/18 03:25:00;;;;;;;7.2;6.0;;;;;;;8.0;100.0;101680;;;;
2022/04/18 03:26:00;;;;;;;7.2;6.0;;;;;;;8.0;100.0;101680;;;;
2022/04/18 03:27:02;;;;;;;7.2;6.0;;;;;;;8.0;100.0;101670;;;;
2022/04/18 03:28:00;;;;;;;7.2;6.0;;;;;;;8.0;100.0;101670;;;;
2022/04/18 03:29:00;;;;;;;7.2;6.0;;;;;;;7.9;100.0;101670;;;;
2022/04/18 03:30:00;;;;;;;7.2;6.0;;;;;;;7.9;100.0;101670;;;;
2022/04/18 03:31:00;;;;;;;7.2;6.0;;;;;;;7.9;100.0;101670;;;;
2022/04/18 03:32:00;;;;;;;6.0;5.5;;;;;;;7.9;100.0;101670;;;;
2022/04/18 03:33:00;;;;;;;6.0;5.5;;;;;;;7.9;100.0;101670;;;;
2022/04/18 03:34:00;;;;;;;6.0;5.5;;;;;;;7.9;100.0;101670;;;;
2022/04/18 03:35:00;;;;;;;6.0;5.5;;;;;;;8.0;100.0;101660;;;;
2022/04/18 03:40:00;;;;;;;6.0;5.5;;;;;;;7.8;100.0;101660;;;;
2022/04/18 03:41:00;;;;;;;6.0;5.5;;;;;;;7.8;100.0;101660;;;;
2022/04/18 03:42:00;;;;;;;6.0;5.5;;;;;;;7.8;100.0;101660;;;;
2022/04/18 03:43:00;;;;;;;6.0;5.5;;;;;;;7.7;100.0;101650;;;;
2022/04/18 03:44:00;;;;;;;6.0;5.5;;;;;;;7.7;100.0;101650;;;;
2022/04/18 03:45:01;;;;;;;6.0;5.5;;;;;;;7.7;100.0;101660;;;;
2022/04/18 03:46:00;;;;;;;6.0;5.5;;;;;;;7.7;100.0;101660;;;;
2022/04/18 03:47:00;;;;;;;6.0;5.5;;;;;;;7.7;100.0;101660;;;;
2022/04/18 03:48:00;;;;;;;6.0;5.5;;;;;;;7.7;100.0;101660;;;;
2022/04/18 03:49:00;;;;;;;6.0;5.5;;;;;;;7.8;100.0;101660;;;;
2022/04/18 03:50:00;;;;;;;6.0;5.5;;;;;;;7.8;100.0;101660;;;;
2022/04/18 03:51:00;;;;;;;6.0;5.5;;;;;;;7.7;100.0;101660;;;;
2022/04/18 03:52:00;;;;;;;6.7;5.9;;;;;;;7.7;100.0;101660;;;;
2022/04/18 03:53:00;;;;;;;6.7;5.9;;;;;;;7.8;100.0;101670;;;;
2022/04/18 03:54:00;;;;;;;6.7;5.9;;;;;;;7.8;100.0;101670;;;;
2022/04/18 03:55:00;;;;;;;6.7;5.9;;;;;;;7.7;100.0;101660;;;;
2022/04/18 03:56:00;;;;;;;6.7;5.9;;;;;;;7.7;100.0;101660;;;;
2022/04/18 03:57:00;;;;;;;6.7;5.9;;;;;;;7.7;100.0;101660;;;;
2022/04/18 03:58:00;;;;;;;6.7;5.9;;;;;;;7.7;100.0;101660;;;;
2022/04/18 03:59:00;;;;;;;6.7;5.9;;;;;;;7.6;100.0;101660;;;;
2022/04/18 04:00:00;;;;;;;6.7;5.9;;;;;;;7.6;100.0;101660;;;;
2022/04/18 04:01:00;;;;;;;6.7;5.9;;;;;;;7.7;100.0;101660;;;;
2022/04/18 04:02:00;;;;;;;6.7;5.9;;;;;;;7.7;100.0;101660;;;;
2022/04/18 04:03:00;;;;;;;6.7;5.9;;;;;;;7.6;100.0;101660;;;;
2022/04/18 04:04:00;;;;;;;6.7;5.9;;;;;;;7.6;100.0;101660;;;;
2022/04/18 04:05:00;;;;;;;6.7;5.9;;;;;;;7.6;100.0;101660;;;;
2022/04/18 04:06:00;;;;;;;6.7;5.9;;;;;;;7.6;100.0;101660;;;;
2022/04/18 04:07:00;;;;;;;6.7;5.9;;;;;;;7.5;100.0;101660;;;;
2022/04/18 04:08:00;;;;;;;6.7;5.9;;;;;;;7.5;100.0;101660;;;;
2022/04/18 04:09:00;;;;;;;6.7;5.9;;;;;;;7.5;100.0;101650;;;;
2022/04/18 04:10:00;;;;;;;6.7;5.9;;;;;;;7.5;100.0;101650;;;;
2022/04/18 04:11:00;;;;;;;6.7;5.9;;;;;;;7.5;100.0;101660;;;;
2022/04/18 04:12:00;;;;;;;6.5;5.9;;;;;;;7.5;100.0;101660;;;;
2022/04/18 04:13:00;;;;;;;6.5;5.9;;;;;;;7.5;100.0;101650;;;;
2022/04/18 04:14:00;;;;;;;6.5;5.9;;;;;;;7.5;100.0;101650;;;;
2022/04/18 04:15:02;;;;;;;6.5;5.9;;;;;;;7.4;100.0;101660;;;;
2022/04/18 04:16:00;;;;;;;6.5;5.9;;;;;;;7.4;100.0;101660;;;;
2022/04/18 04:17:00;;;;;;;6.5;5.9;;;;;;;7.4;100.0;101660;;;;
2022/04/18 04:18:00;;;;;;;6.5;5.9;;;;;;;7.4;100.0;101660;;;;
2022/04/18 04:19:00;;;;;;;6.5;5.9;;;;;;;7.4;100.0;101650;;;;
2022/04/18 04:20:00;;;;;;;6.5;5.9;;;;;;;7.4;100.0;101650;;;;
2022/04/18 04:21:00;;;;;;;6.5;5.9;;;;;;;7.4;100.0;101660;;;;
2022/04/18 04:22:00;;;;;;;6.5;5.9;;;;;;;7.4;100.0;101660;;;;
2022/04/18 04:23:00;;;;;;;6.5;5.9;;;;;;;7.4;100.0;101660;;;;
2022/04/18 04:24:00;;;;;;;6.5;5.9;;;;;;;7.4;100.0;101660;;;;
2022/04/18 04:25:00;;;;;;;6.5;5.9;;;;;;;7.3;100.0;101660;;;;
2022/04/18 04:26:00;;;;;;;6.5;5.9;;;;;;;7.3;100.0;101660;;;;
2022/04/18 04:27:00;;;;;;;6.5;5.9;;;;;;;7.3;100.0;101650;;;;
2022/04/18 04:28:00;;;;;;;6.5;5.9;;;;;;;7.3;100.0;101650;;;;
2022/04/18 04:29:00;;;;;;;6.5;5.9;;;;;;;7.2;100.0;101650;;;;
2022/04/18 04:30:00;;;;;;;6.5;5.9;;;;;;;7.2;100.0;101650;;;;
2022/04/18 04:31:02;;;;;;;6.4;5.7;;;;;;;7.2;100.0;101650;;;;
2022/04/18 04:32:00;;;;;;;6.4;5.7;;;;;;;7.2;100.0;101650;;;;
2022/04/18 04:33:00;;;;;;;6.4;5.7;;;;;;;7.2;100.0;101650;;;;
2022/04/18 04:34:00;;;;;;;6.4;5.7;;;;;;;7.2;100.0;101650;;;;
2022/04/18 04:35:00;;;;;;;6.4;5.7;;;;;;;7.2;100.0;101650;;;;
2022/04/18 04:36:00;;;;;;;6.4;5.7;;;;;;;7.2;100.0;101650;;;;
2022/04/18 04:37:00;;;;;;;6.4;5.7;;;;;;;7.1;100.0;101650;;;;
2022/04/18 04:38:00;;;;;;;6.4;5.7;;;;;;;7.1;100.0;101650;;;;
2022/04/18 04:39:00;;;;;;;6.4;5.7;;;;;;;7.1;100.0;101650;;;;
2022/04/18 04:40:00;;;;;;;6.4;5.7;;;;;;;7.1;100.0;101650;;;;
2022/04/18 04:41:00;;;;;;;6.4;5.7;;;;;;;7.1;100.0;101650;;;;
2022/04/18 04:42:00;;;;;;;6.4;5.7;;;;;;;7.1;100.0;101650;;;;
2022/04/18 04:43:00;;;;;;;6.4;5.7;;;;;;;7.0;100.0;101650;;;;
2022/04/18 04:44:00;;;;;;;6.4;5.7;;;;;;;7.0;100.0;101650;;;;
2022/04/18 04:45:00;;;;;;;6.4;5.7;;;;;;;7.1;100.0;101660;;;;
2022/04/18 04:46:00;;;;;;;6.4;5.7;;;;;;;7.1;100.0;101660;;;;
2022/04/18 04:47:00;;;;;;;6.4;5.7;;;;;;;7.1;100.0;101660;;;;
2022/04/18 04:48:00;;;;;;;6.4;5.7;;;;;;;7.1;100.0;101660;;;;
2022/04/18 04:49:00;;;;;;;6.4;5.7;;;;;;;7.1;100.0;101660;;;;
2022/04/18 04:50:00;;;;;;;6.4;5.7;;;;;;;7.1;100.0;101660;;;;
2022/04/18 04:51:00;;;;;;;8.1;5.7;;;;;;;7.0;100.0;101660;;;;
2022/04/18 04:52:00;;;;;;;8.1;5.7;;;;;;;7.0;100.0;101660;;;;
2022/04/18 04:53:00;;;;;;;8.1;5.7;;;;;;;6.9;100.0;101660;;;;
2022/04/18 04:54:00;;;;;;;8.1;5.7;;;;;;;6.9;100.0;101660;;;;
2022/04/18 04:55:00;;;;;;;8.1;5.7;;;;;;;6.9;100.0;101650;;;;
2022/04/18 04:56:00;;;;;;;8.1;5.7;;;;;;;6.9;100.0;101650;;;;
2022/04/18 04:57:00;;;;;;;8.1;5.7;;;;;;;6.9;100.0;101650;;;;
2022/04/18 04:58:00;;;;;;;8.1;5.7;;;;;;;6.9;100.0;101650;;;;
2022/04/18 04:59:00;;;;;;;8.1;5.7;;;;;;;6.9;100.0;101650;;;;
2022/04/18 05:00:00;;;;;;;8.1;5.7;;;;;;;6.9;100.0;101650;;;;
2022/04/18 05:01:00;;;;;;;8.1;5.7;;;;;;;6.9;100.0;101660;;;;
2022/04/18 05:02:00;;;;;;;8.1;5.7;;;;;;;6.9;100.0;101660;;;;
2022/04/18 05:03:00;;;;;;;8.1;5.7;;;;;;;6.9;100.0;101660;;;;
2022/04/18 05:04:01;;;;;;;8.1;5.7;;;;;;;6.9;100.0;101660;;;;
2022/04/18 05:05:00;;;;;;;8.1;5.7;;;;;;;6.9;100.0;101660;;;;
2022/04/18 05:06:00;;;;;;;8.1;5.7;;;;;;;6.9;100.0;101660;;;;
2022/04/18 05:07:00;;;;;;;8.1;5.7;;;;;;;6.9;100.0;101660;;;;
2022/04/18 05:08:00;;;;;;;8.1;5.7;;;;;;;6.9;100.0;101660;;;;
2022/04/18 05:09:00;;;;;;;8.1;5.7;;;;;;;6.9;100.0;101660;;;;
2022/04/18 05:10:00;;;;;;;8.1;5.7;;;;;;;6.9;100.0;101660;;;;
2022/04/18 05:11:00;;;;;;;6.3;5.4;;;;;;;6.9;100.0;101670;;;;
2022/04/18 05:12:00;;;;;;;6.3;5.4;;;;;;;6.9;100.0;101670;;;;
2022/04/18 05:13:00;;;;;;;6.3;5.4;;;;;;;7.0;100.0;101670;;;;
2022/04/18 05:14:00;;;;;;;6.3;5.4;;;;;;;7.0;100.0;101670;;;;
2022/04/18 05:15:03;;;;;;;6.3;5.4;;;;;;;7.0;100.0;101670;;;;
2022/04/18 05:16:00;;;;;;;6.3;5.4;;;;;;;7.0;100.0;101670;;;;
2022/04/18 05:17:02;;;;;;;6.3;5.4;;;;;;;7.0;100.0;101670;;;;
2022/04/18 05:18:00;;;;;;;6.3;5.4;;;;;;;7.0;100.0;101670;;;;
2022/04/18 05:19:00;;;;;;;6.3;5.4;;;;;;;7.0;100.0;101670;;;;
2022/04/18 05:20:02;;;;;;;6.3;5.4;;;;;;;7.0;100.0;101670;;;;
2022/04/18 05:21:00;;;;;;;6.3;5.4;;;;;;;7.0;100.0;101670;;;;
2022/04/18 05:22:00;;;;;;;6.3;5.4;;;;;;;7.0;100.0;101670;;;;
2022/04/18 05:23:00;;;;;;;6.3;5.4;;;;;;;7.0;100.0;101670;;;;
2022/04/18 05:24:01;;;;;;;6.3;5.4;;;;;;;7.0;100.0;101670;;;;
2022/04/18 05:25:00;;;;;;;6.3;5.4;;;;;;;6.9;100.0;101680;;;;
2022/04/18 05:26:00;;;;;;;6.3;5.4;;;;;;;6.9;100.0;101680;;;;
2022/04/18 05:27:00;;;;;;;6.3;5.4;;;;;;;7.0;100.0;101670;;;;
2022/04/18 05:28:00;;;;;;;6.3;5.4;;;;;;;7.0;100.0;101670;;;;
2022/04/18 05:29:00;;;;;;;6.3;5.4;;;;;;;7.0;100.0;101670;;;;
2022/04/18 05:30:00;;;;;;;6.3;5.4;;;;;;;7.0;100.0;101670;;;;
2022/04/18 05:31:00;;;;;;;6.2;5.6;;;;;;;7.1;100.0;101680;;;;
2022/04/18 05:32:00;;;;;;;6.2;5.6;;;;;;;7.1;100.0;101680;;;;
2022/04/18 05:33:00;;;;;;;6.2;5.6;;;;;;;7.1;100.0;101680;;;;
2022/04/18 05:34:00;;;;;;;6.2;5.6;;;;;;;7.1;100.0;101680;;;;
2022/04/18 05:35:00;;;;;;;6.2;5.6;;;;;;;7.2;100.0;101680;;;;
2022/04/18 05:36:00;;;;;;;6.2;5.6;;;;;;;7.2;100.0;101680;;;;
2022/04/18 05:37:00;;;;;;;6.2;5.6;;;;;;;7.2;100.0;101680;;;;
2022/04/18 05:38:00;;;;;;;6.2;5.6;;;;;;;7.2;100.0;101680;;;;
2022/04/18 05:39:00;;;;;;;6.2;5.6;;;;;;;7.2;100.0;101680;;;;
2022/04/18 05:40:00;;;;;;;6.2;5.6;;;;;;;7.2;100.0;101680;;;;
2022/04/18 05:41:00;;;;;;;6.2;5.6;;;;;;;7.2;100.0;101680;;;;
2022/04/18 05:42:00;;;;;;;6.2;5.6;;;;;;;7.2;100.0;101680;;;;
2022/04/18 05:43:02;;;;;;;6.2;5.6;;;;;;;7.2;100.0;101680;;;;
2022/04/18 05:44:00;;;;;;;6.2;5.6;;;;;;;7.2;100.0;101680;;;;
2022/04/18 05:45:00;;;;;;;6.2;5.6;;;;;;;7.3;100.0;101680;;;;
2022/04/18 05:46:00;;;;;;;6.2;5.6;;;;;;;7.3;100.0;101680;;;;
2022/04/18 05:47:00;;;;;;;6.2;5.6;;;;;;;7.2;100.0;101680;;;;
2022/04/18 05:48:00;;;;;;;6.2;5.6;;;;;;;7.2;100.0;101680;;;;
2022/04/18 05:49:00;;;;;;;6.2;5.6;;;;;;;7.3;100.0;101680;;;;
2022/04/18 05:50:00;;;;;;;6.2;5.6;;;;;;;7.3;100.0;101680;;;;
2022/04/18 05:51:00;;;;;;;5.7;5.2;;;;;;;7.3;100.0;101680;;;;
2022/04/18 05:52:00;;;;;;;5.7;5.2;;;;;;;7.3;100.0;101680;;;;
2022/04/18 05:53:00;;;;;;;5.7;5.2;;;;;;;7.4;100.0;101680;;;;
2022/04/18 05:54:01;;;;;;;5.7;5.2;;;;;;;7.4;100.0;101680;;;;
2022/04/18 05:55:00;;;;;;;5.7;5.2;;;;;;;7.4;100.0;101680;;;;
2022/04/18 05:56:00;;;;;;;5.7;5.2;;;;;;;7.4;100.0;101680;;;;
2022/04/18 05:57:03;;;;;;;5.7;5.2;;;;;;;7.5;100.0;101680;;;;
2022/04/18 05:58:00;;;;;;;5.7;5.2;;;;;;;7.5;100.0;101680;;;;
2022/04/18 05:59:00;;;;;;;5.7;5.2;;;;;;;7.6;100.0;101680;;;;
2022/04/18 06:00:00;;;;;;;5.7;5.2;;;;;;;7.6;100.0;101680;;;;
2022/04/18 06:01:00;;;;;;;5.7;5.2;;;;;;;7.5;100.0;101680;;;;
2022/04/18 06:02:00;;;;;;;5.7;5.2;;;;;;;7.5;100.0;101680;;;;
2022/04/18 06:03:01;;;;;;;5.7;5.2;;;;;;;7.7;100.0;101670;;;;
2022/04/18 06:04:00;;;;;;;5.7;5.2;;;;;;;7.7;100.0;101670;;;;
2022/04/18 06:05:00;;;;;;;5.7;5.2;;;;;;;7.7;100.0;101680;;;;
2022/04/18 06:06:00;;;;;;;5.7;5.2;;;;;;;7.7;100.0;101680;;;;
2022/04/18 06:07:00;;;;;;;5.7;5.2;;;;;;;7.8;100.0;101670;;;;
2022/04/18 06:08:00;;;;;;;5.7;5.2;;;;;;;7.8;100.0;101670;;;;
2022/04/18 06:09:00;;;;;;;5.7;5.2;;;;;;;7.9;100.0;101670;;;;
2022/04/18 06:10:01;;;;;;;5.7;5.2;;;;;;;7.9;100.0;101670;;;;
2022/04/18 06:11:00;;;;;;;8.0;6.0;;;;;;;8.0;100.0;101670;;;;
2022/04/18 06:12:00;;;;;;;8.0;6.0;;;;;;;8.0;100.0;101670;;;;
2022/04/18 06:13:00;;;;;;;8.0;6.0;;;;;;;8.0;100.0;101670;;;;
2022/04/18 06:14:00;;;;;;;8.0;6.0;;;;;;;8.0;100.0;101670;;;;
2022/04/18 06:15:00;;;;;;;8.0;6.0;;;;;;;8.1;100.0;101670;;;;
2022/04/18 06:16:00;;;;;;;8.0;6.0;;;;;;;8.1;100.0;101670;;;;
2022/04/18 06:17:00;;;;;;;8.0;6.0;;;;;;;8.2;100.0;101670;;;;
2022/04/18 06:18:00;;;;;;;8.0;6.0;;;;;;;8.2;100.0;101670;;;;
2022/04/18 06:19:00;;;;;;;8.0;6.0;;;;;;;8.2;100.0;101670;;;;
2022/04/18 06:20:00;;;;;;;8.0;6.0;;;;;;;8.2;100.0;101670;;;;
2022/04/18 06:21:00;;;;;;;8.0;6.0;;;;;;;8.3;100.0;101670;;;;
2022/04/18 06:22:00;;;;;;;8.0;6.0;;;;;;;8.3;100.0;101670;;;;
2022/04/18 06:23:00;;;;;;;8.0;6.0;;;;;;;8.5;100.0;101660;;;;
2022/04/18 06:24:00;;;;;;;8.0;6.0;;;;;;;8.5;100.0;101660;;;;
2022/04/18 06:25:00;;;;;;;8.0;6.0;;;;;;;8.6;100.0;101660;;;;
2022/04/18 06:26:04;;;;;;;8.0;6.0;;;;;;;8.6;100.0;101660;;;;
2022/04/18 06:27:00;;;;;;;8.0;6.0;;;;;;;8.7;98.9;101670;;;;
2022/04/18 06:28:00;;;;;;;8.0;6.0;;;;;;;8.7;98.9;101670;;;;
2022/04/18 06:29:00;;;;;;;8.0;6.0;;;;;;;8.7;99.5;101670;;;;
2022/04/18 06:30:00;;;;;;;8.0;6.0;;;;;;;8.7;99.5;101670;;;;
2022/04/18 06:31:00;;;;;;;6.9;5.3;;;;;;;8.8;98.9;101670;;;;
2022/04/18 06:32:00;;;;;;;6.9;5.3;;;;;;;8.8;98.9;101670;;;;
2022/04/18 06:33:00;;;;;;;6.9;5.3;;;;;;;9.0;97.7;101670;;;;
2022/04/18 06:34:00;;;;;;;6.9;5.3;;;;;;;9.0;97.7;101670;;;;
2022/04/18 06:35:00;;;;;;;6.9;5.3;;;;;;;9.0;98.1;101670;;;;
2022/04/18 06:36:01;;;;;;;6.9;5.3;;;;;;;9.0;98.1;101670;;;;
2022/04/18 06:37:00;;;;;;;6.9;5.3;;;;;;;9.1;95.8;101680;;;;
2022/04/18 06:38:00;;;;;;;6.9;5.3;;;;;;;9.1;95.8;101680;;;;